sensor_id;sensor_type;location;lat;lon;timestamp;P1;durP1;ratioP1;P2;durP2;ratioP2
84849;SDS011;75096;49.576;11.024;2023-12-22T00:00:38;4.07;;;1.05;;
84849;SDS011;75096;49.576;11.024;2023-12-22T00:01:40;2.95;;;0.75;;
84849;SDS011;75096;49.576;11.024;2023-12-22T00:02:42;2.28;;;1.10;;
84849;SDS011;75096;49.576;11.024;2023-12-22T00:03:43;4.55;;;1.60;;
84849;SDS011;75096;49.576;11.024;2023-12-22T00:04:47;5.18;;;1.17;;
84849;SDS011;75096;49.576;11.024;2023-12-22T00:05:49;4.40;;;1.05;;
84849;SDS011;75096;49.576;11.024;2023-12-22T00:06:51;6.70;;;1.30;;
84849;SDS011;75096;49.576;11.024;2023-12-22T00:07:53;5.25;;;1.40;;
84849;SDS011;75096;49.576;11.024;2023-12-22T00:08:55;6.60;;;1.45;;
84849;SDS011;75096;49.576;11.024;2023-12-22T00:09:56;6.50;;;1.38;;
84849;SDS011;75096;49.576;11.024;2023-12-22T00:10:58;8.43;;;1.20;;
84849;SDS011;75096;49.576;11.024;2023-12-22T00:12:01;3.17;;;0.90;;
84849;SDS011;75096;49.576;11.024;2023-12-22T00:13:03;4.18;;;1.10;;
84849;SDS011;75096;49.576;11.024;2023-12-22T00:14:04;8.88;;;1.95;;
84849;SDS011;75096;49.576;11.024;2023-12-22T00:15:06;8.52;;;1.10;;
84849;SDS011;75096;49.576;11.024;2023-12-22T00:16:08;8.25;;;1.38;;
84849;SDS011;75096;49.576;11.024;2023-12-22T00:17:09;4.78;;;1.23;;
84849;SDS011;75096;49.576;11.024;2023-12-22T00:18:11;7.40;;;1.00;;
84849;SDS011;75096;49.576;11.024;2023-12-22T00:19:13;5.25;;;0.93;;
84849;SDS011;75096;49.576;11.024;2023-12-22T00:20:15;5.22;;;1.00;;
84849;SDS011;75096;49.576;11.024;2023-12-22T00:21:16;3.42;;;0.80;;
84849;SDS011;75096;49.576;11.024;2023-12-22T00:22:18;7.25;;;1.00;;
84849;SDS011;75096;49.576;11.024;2023-12-22T00:23:20;6.68;;;1.13;;
84849;SDS011;75096;49.576;11.024;2023-12-22T00:24:21;8.05;;;1.08;;
84849;SDS011;75096;49.576;11.024;2023-12-22T00:25:23;5.63;;;1.10;;
84849;SDS011;75096;49.576;11.024;2023-12-22T00:26:24;7.30;;;1.00;;
84849;SDS011;75096;49.576;11.024;2023-12-22T00:27:26;7.47;;;2.25;;
84849;SDS011;75096;49.576;11.024;2023-12-22T00:28:28;9.65;;;1.20;;
84849;SDS011;75096;49.576;11.024;2023-12-22T00:29:29;4.40;;;1.00;;
84849;SDS011;75096;49.576;11.024;2023-12-22T00:30:31;6.47;;;1.58;;
84849;SDS011;75096;49.576;11.024;2023-12-22T00:31:33;6.40;;;1.13;;
84849;SDS011;75096;49.576;11.024;2023-12-22T00:32:35;4.22;;;0.90;;
84849;SDS011;75096;49.576;11.024;2023-12-22T00:33:36;5.93;;;1.08;;
84849;SDS011;75096;49.576;11.024;2023-12-22T00:34:38;5.50;;;1.02;;
84849;SDS011;75096;49.576;11.024;2023-12-22T00:35:39;4.88;;;0.90;;
84849;SDS011;75096;49.576;11.024;2023-12-22T00:36:41;5.65;;;1.10;;
84849;SDS011;75096;49.576;11.024;2023-12-22T00:37:44;5.13;;;1.27;;
84849;SDS011;75096;49.576;11.024;2023-12-22T00:38:46;5.55;;;1.52;;
84849;SDS011;75096;49.576;11.024;2023-12-22T00:39:48;3.83;;;1.40;;
84849;SDS011;75096;49.576;11.024;2023-12-22T00:40:49;10.18;;;2.20;;
84849;SDS011;75096;49.576;11.024;2023-12-22T00:41:51;8.63;;;1.33;;
84849;SDS011;75096;49.576;11.024;2023-12-22T00:42:52;5.70;;;1.42;;
84849;SDS011;75096;49.576;11.024;2023-12-22T00:43:54;5.88;;;1.40;;
84849;SDS011;75096;49.576;11.024;2023-12-22T00:44:55;7.63;;;1.20;;
84849;SDS011;75096;49.576;11.024;2023-12-22T00:45:57;6.18;;;2.00;;
84849;SDS011;75096;49.576;11.024;2023-12-22T00:46:59;8.68;;;1.20;;
84849;SDS011;75096;49.576;11.024;2023-12-22T00:48:00;9.52;;;1.55;;
84849;SDS011;75096;49.576;11.024;2023-12-22T00:49:02;5.35;;;1.33;;
84849;SDS011;75096;49.576;11.024;2023-12-22T00:50:04;3.30;;;0.80;;
84849;SDS011;75096;49.576;11.024;2023-12-22T00:51:07;7.65;;;1.35;;
84849;SDS011;75096;49.576;11.024;2023-12-22T00:52:09;7.03;;;1.35;;
84849;SDS011;75096;49.576;11.024;2023-12-22T00:53:11;6.78;;;1.30;;
84849;SDS011;75096;49.576;11.024;2023-12-22T00:54:12;3.55;;;0.98;;
84849;SDS011;75096;49.576;11.024;2023-12-22T00:55:14;7.75;;;1.52;;
84849;SDS011;75096;49.576;11.024;2023-12-22T00:56:16;4.53;;;1.08;;
84849;SDS011;75096;49.576;11.024;2023-12-22T00:57:17;6.40;;;1.40;;
84849;SDS011;75096;49.576;11.024;2023-12-22T00:58:19;6.85;;;1.20;;
84849;SDS011;75096;49.576;11.024;2023-12-22T00:59:21;5.32;;;1.13;;
84849;SDS011;75096;49.576;11.024;2023-12-22T01:00:22;7.68;;;1.05;;
84849;SDS011;75096;49.576;11.024;2023-12-22T01:01:24;9.82;;;1.20;;
84849;SDS011;75096;49.576;11.024;2023-12-22T01:02:25;4.88;;;1.13;;
84849;SDS011;75096;49.576;11.024;2023-12-22T01:03:27;5.60;;;1.45;;
84849;SDS011;75096;49.576;11.024;2023-12-22T01:04:29;6.95;;;0.90;;
84849;SDS011;75096;49.576;11.024;2023-12-22T01:05:31;7.70;;;1.10;;
84849;SDS011;75096;49.576;11.024;2023-12-22T01:06:36;6.20;;;1.35;;
84849;SDS011;75096;49.576;11.024;2023-12-22T01:07:38;5.05;;;1.00;;
84849;SDS011;75096;49.576;11.024;2023-12-22T01:08:40;5.03;;;0.90;;
84849;SDS011;75096;49.576;11.024;2023-12-22T01:09:42;5.32;;;1.27;;
84849;SDS011;75096;49.576;11.024;2023-12-22T01:10:43;6.20;;;1.17;;
84849;SDS011;75096;49.576;11.024;2023-12-22T01:11:45;8.20;;;1.38;;
84849;SDS011;75096;49.576;11.024;2023-12-22T01:12:47;5.63;;;1.35;;
84849;SDS011;75096;49.576;11.024;2023-12-22T01:13:49;6.75;;;1.10;;
84849;SDS011;75096;49.576;11.024;2023-12-22T01:14:50;6.75;;;1.42;;
84849;SDS011;75096;49.576;11.024;2023-12-22T01:15:53;4.50;;;1.02;;
84849;SDS011;75096;49.576;11.024;2023-12-22T01:16:54;8.23;;;1.45;;
84849;SDS011;75096;49.576;11.024;2023-12-22T01:17:56;7.50;;;1.05;;
84849;SDS011;75096;49.576;11.024;2023-12-22T01:18:58;8.43;;;1.23;;
84849;SDS011;75096;49.576;11.024;2023-12-22T01:20:00;3.05;;;1.05;;
84849;SDS011;75096;49.576;11.024;2023-12-22T01:21:01;7.00;;;1.25;;
84849;SDS011;75096;49.576;11.024;2023-12-22T01:22:03;6.63;;;0.95;;
84849;SDS011;75096;49.576;11.024;2023-12-22T01:23:05;9.07;;;1.15;;
84849;SDS011;75096;49.576;11.024;2023-12-22T01:24:07;6.15;;;1.10;;
84849;SDS011;75096;49.576;11.024;2023-12-22T01:25:09;8.80;;;1.15;;
84849;SDS011;75096;49.576;11.024;2023-12-22T01:26:10;10.90;;;3.15;;
84849;SDS011;75096;49.576;11.024;2023-12-22T01:27:12;8.38;;;1.30;;
84849;SDS011;75096;49.576;11.024;2023-12-22T01:28:14;4.32;;;1.08;;
84849;SDS011;75096;49.576;11.024;2023-12-22T01:29:15;7.15;;;0.98;;
84849;SDS011;75096;49.576;11.024;2023-12-22T01:30:17;6.85;;;1.40;;
84849;SDS011;75096;49.576;11.024;2023-12-22T01:31:19;8.10;;;1.40;;
84849;SDS011;75096;49.576;11.024;2023-12-22T01:32:21;5.97;;;1.20;;
84849;SDS011;75096;49.576;11.024;2023-12-22T01:33:22;9.02;;;1.50;;
84849;SDS011;75096;49.576;11.024;2023-12-22T01:34:24;9.70;;;2.10;;
84849;SDS011;75096;49.576;11.024;2023-12-22T01:35:26;3.97;;;1.13;;
84849;SDS011;75096;49.576;11.024;2023-12-22T01:36:28;3.95;;;1.15;;
84849;SDS011;75096;49.576;11.024;2023-12-22T01:37:29;4.20;;;1.02;;
84849;SDS011;75096;49.576;11.024;2023-12-22T01:38:31;5.20;;;0.95;;
84849;SDS011;75096;49.576;11.024;2023-12-22T01:39:33;5.82;;;1.10;;
84849;SDS011;75096;49.576;11.024;2023-12-22T01:40:34;7.05;;;1.33;;
84849;SDS011;75096;49.576;11.024;2023-12-22T01:41:37;3.15;;;1.00;;
84849;SDS011;75096;49.576;11.024;2023-12-22T01:42:39;5.75;;;1.00;;
84849;SDS011;75096;49.576;11.024;2023-12-22T01:43:41;4.47;;;0.98;;
84849;SDS011;75096;49.576;11.024;2023-12-22T01:44:43;7.18;;;0.98;;
84849;SDS011;75096;49.576;11.024;2023-12-22T01:45:44;4.28;;;1.00;;
84849;SDS011;75096;49.576;11.024;2023-12-22T01:46:46;5.10;;;1.08;;
84849;SDS011;75096;49.576;11.024;2023-12-22T01:47:48;7.38;;;1.20;;
84849;SDS011;75096;49.576;11.024;2023-12-22T01:48:49;4.53;;;1.08;;
84849;SDS011;75096;49.576;11.024;2023-12-22T01:49:51;5.95;;;0.90;;
84849;SDS011;75096;49.576;11.024;2023-12-22T01:50:53;4.68;;;0.90;;
84849;SDS011;75096;49.576;11.024;2023-12-22T01:51:56;4.75;;;0.90;;
84849;SDS011;75096;49.576;11.024;2023-12-22T01:52:59;2.85;;;0.73;;
84849;SDS011;75096;49.576;11.024;2023-12-22T01:54:00;4.25;;;1.13;;
84849;SDS011;75096;49.576;11.024;2023-12-22T01:55:02;8.48;;;1.23;;
84849;SDS011;75096;49.576;11.024;2023-12-22T01:56:04;5.55;;;0.90;;
84849;SDS011;75096;49.576;11.024;2023-12-22T01:57:06;7.35;;;1.38;;
84849;SDS011;75096;49.576;11.024;2023-12-22T01:58:08;5.90;;;1.10;;
84849;SDS011;75096;49.576;11.024;2023-12-22T01:59:09;2.88;;;0.93;;
84849;SDS011;75096;49.576;11.024;2023-12-22T02:00:11;3.38;;;0.90;;
84849;SDS011;75096;49.576;11.024;2023-12-22T02:01:13;6.57;;;1.23;;
84849;SDS011;75096;49.576;11.024;2023-12-22T02:02:15;4.90;;;1.23;;
84849;SDS011;75096;49.576;11.024;2023-12-22T02:03:18;3.50;;;0.70;;
84849;SDS011;75096;49.576;11.024;2023-12-22T02:04:20;5.57;;;1.13;;
84849;SDS011;75096;49.576;11.024;2023-12-22T02:05:22;4.85;;;0.98;;
84849;SDS011;75096;49.576;11.024;2023-12-22T02:06:24;4.50;;;0.98;;
84849;SDS011;75096;49.576;11.024;2023-12-22T02:07:26;2.30;;;0.85;;
84849;SDS011;75096;49.576;11.024;2023-12-22T02:08:28;4.32;;;0.82;;
84849;SDS011;75096;49.576;11.024;2023-12-22T02:09:33;3.75;;;1.00;;
84849;SDS011;75096;49.576;11.024;2023-12-22T02:10:35;6.60;;;0.85;;
84849;SDS011;75096;49.576;11.024;2023-12-22T02:11:38;2.92;;;0.95;;
84849;SDS011;75096;49.576;11.024;2023-12-22T02:12:39;2.30;;;0.77;;
84849;SDS011;75096;49.576;11.024;2023-12-22T02:13:42;4.45;;;1.15;;
84849;SDS011;75096;49.576;11.024;2023-12-22T02:14:44;4.40;;;0.82;;
84849;SDS011;75096;49.576;11.024;2023-12-22T02:15:46;3.25;;;1.00;;
84849;SDS011;75096;49.576;11.024;2023-12-22T02:16:53;5.13;;;0.80;;
84849;SDS011;75096;49.576;11.024;2023-12-22T02:18:09;4.43;;;0.75;;
84849;SDS011;75096;49.576;11.024;2023-12-22T02:19:18;7.05;;;0.90;;
84849;SDS011;75096;49.576;11.024;2023-12-22T02:20:27;2.88;;;0.70;;
84849;SDS011;75096;49.576;11.024;2023-12-22T02:21:28;4.40;;;0.88;;
84849;SDS011;75096;49.576;11.024;2023-12-22T02:22:30;4.70;;;0.70;;
84849;SDS011;75096;49.576;11.024;2023-12-22T02:23:32;1.42;;;0.57;;
84849;SDS011;75096;49.576;11.024;2023-12-22T02:24:34;5.07;;;0.80;;
84849;SDS011;75096;49.576;11.024;2023-12-22T02:25:36;2.65;;;0.60;;
84849;SDS011;75096;49.576;11.024;2023-12-22T02:26:41;2.65;;;0.80;;
84849;SDS011;75096;49.576;11.024;2023-12-22T02:27:50;2.40;;;0.80;;
84849;SDS011;75096;49.576;11.024;2023-12-22T02:28:55;5.75;;;0.98;;
84849;SDS011;75096;49.576;11.024;2023-12-22T02:30:09;4.70;;;0.90;;
84849;SDS011;75096;49.576;11.024;2023-12-22T02:31:22;2.95;;;1.10;;
84849;SDS011;75096;49.576;11.024;2023-12-22T02:32:32;4.68;;;1.05;;
84849;SDS011;75096;49.576;11.024;2023-12-22T02:33:37;2.17;;;0.65;;
84849;SDS011;75096;49.576;11.024;2023-12-22T02:34:41;1.75;;;0.82;;
84849;SDS011;75096;49.576;11.024;2023-12-22T02:35:43;3.60;;;0.70;;
84849;SDS011;75096;49.576;11.024;2023-12-22T02:36:45;3.33;;;0.80;;
84849;SDS011;75096;49.576;11.024;2023-12-22T02:37:49;3.25;;;0.90;;
84849;SDS011;75096;49.576;11.024;2023-12-22T02:38:53;4.43;;;0.93;;
84849;SDS011;75096;49.576;11.024;2023-12-22T02:39:56;4.28;;;1.00;;
84849;SDS011;75096;49.576;11.024;2023-12-22T02:40:58;2.63;;;0.70;;
84849;SDS011;75096;49.576;11.024;2023-12-22T02:42:00;3.95;;;0.90;;
84849;SDS011;75096;49.576;11.024;2023-12-22T02:43:02;3.83;;;0.73;;
84849;SDS011;75096;49.576;11.024;2023-12-22T02:44:04;3.97;;;1.00;;
84849;SDS011;75096;49.576;11.024;2023-12-22T02:45:06;1.90;;;0.73;;
84849;SDS011;75096;49.576;11.024;2023-12-22T02:46:15;2.65;;;1.13;;
84849;SDS011;75096;49.576;11.024;2023-12-22T02:47:17;3.20;;;0.82;;
84849;SDS011;75096;49.576;11.024;2023-12-22T02:48:19;3.85;;;0.80;;
84849;SDS011;75096;49.576;11.024;2023-12-22T02:49:20;5.93;;;1.20;;
84849;SDS011;75096;49.576;11.024;2023-12-22T02:50:22;6.28;;;0.90;;
84849;SDS011;75096;49.576;11.024;2023-12-22T02:51:24;2.72;;;1.00;;
84849;SDS011;75096;49.576;11.024;2023-12-22T02:52:26;2.20;;;0.70;;
84849;SDS011;75096;49.576;11.024;2023-12-22T02:53:27;2.67;;;0.70;;
84849;SDS011;75096;49.576;11.024;2023-12-22T02:54:29;4.70;;;0.93;;
84849;SDS011;75096;49.576;11.024;2023-12-22T02:55:32;2.75;;;0.65;;
84849;SDS011;75096;49.576;11.024;2023-12-22T02:56:35;2.13;;;0.57;;
84849;SDS011;75096;49.576;11.024;2023-12-22T02:57:37;1.55;;;0.60;;
84849;SDS011;75096;49.576;11.024;2023-12-22T02:58:39;2.30;;;0.73;;
84849;SDS011;75096;49.576;11.024;2023-12-22T02:59:40;1.40;;;0.47;;
84849;SDS011;75096;49.576;11.024;2023-12-22T03:00:42;3.42;;;0.65;;
84849;SDS011;75096;49.576;11.024;2023-12-22T03:01:45;1.15;;;0.50;;
84849;SDS011;75096;49.576;11.024;2023-12-22T03:02:46;2.30;;;0.60;;
84849;SDS011;75096;49.576;11.024;2023-12-22T03:03:48;2.60;;;0.63;;
84849;SDS011;75096;49.576;11.024;2023-12-22T03:04:49;1.45;;;0.52;;
84849;SDS011;75096;49.576;11.024;2023-12-22T03:05:51;1.83;;;0.60;;
84849;SDS011;75096;49.576;11.024;2023-12-22T03:06:53;1.67;;;0.57;;
84849;SDS011;75096;49.576;11.024;2023-12-22T03:07:58;2.00;;;0.60;;
84849;SDS011;75096;49.576;11.024;2023-12-22T03:09:01;3.25;;;1.00;;
84849;SDS011;75096;49.576;11.024;2023-12-22T03:10:02;1.48;;;0.63;;
84849;SDS011;75096;49.576;11.024;2023-12-22T03:11:04;2.53;;;0.60;;
84849;SDS011;75096;49.576;11.024;2023-12-22T03:12:06;2.47;;;0.50;;
84849;SDS011;75096;49.576;11.024;2023-12-22T03:13:08;3.15;;;0.80;;
84849;SDS011;75096;49.576;11.024;2023-12-22T03:14:10;2.88;;;0.57;;
84849;SDS011;75096;49.576;11.024;2023-12-22T03:15:12;2.22;;;0.60;;
84849;SDS011;75096;49.576;11.024;2023-12-22T03:16:13;2.88;;;0.68;;
84849;SDS011;75096;49.576;11.024;2023-12-22T03:17:15;1.42;;;0.60;;
84849;SDS011;75096;49.576;11.024;2023-12-22T03:18:17;1.52;;;0.70;;
84849;SDS011;75096;49.576;11.024;2023-12-22T03:19:19;1.98;;;0.45;;
84849;SDS011;75096;49.576;11.024;2023-12-22T03:20:22;1.92;;;0.65;;
84849;SDS011;75096;49.576;11.024;2023-12-22T03:21:24;2.72;;;0.60;;
84849;SDS011;75096;49.576;11.024;2023-12-22T03:22:26;2.40;;;0.60;;
84849;SDS011;75096;49.576;11.024;2023-12-22T03:23:28;2.20;;;1.00;;
84849;SDS011;75096;49.576;11.024;2023-12-22T03:24:29;2.80;;;0.80;;
84849;SDS011;75096;49.576;11.024;2023-12-22T03:25:31;2.85;;;0.80;;
84849;SDS011;75096;49.576;11.024;2023-12-22T03:26:33;3.60;;;0.95;;
84849;SDS011;75096;49.576;11.024;2023-12-22T03:27:34;1.77;;;0.50;;
84849;SDS011;75096;49.576;11.024;2023-12-22T03:28:36;2.17;;;0.50;;
84849;SDS011;75096;49.576;11.024;2023-12-22T03:29:37;1.15;;;0.50;;
84849;SDS011;75096;49.576;11.024;2023-12-22T03:30:39;3.20;;;0.60;;
84849;SDS011;75096;49.576;11.024;2023-12-22T03:31:41;1.85;;;0.60;;
84849;SDS011;75096;49.576;11.024;2023-12-22T03:32:42;2.17;;;0.60;;
84849;SDS011;75096;49.576;11.024;2023-12-22T03:33:44;1.17;;;0.47;;
84849;SDS011;75096;49.576;11.024;2023-12-22T03:34:45;2.00;;;0.60;;
84849;SDS011;75096;49.576;11.024;2023-12-22T03:35:48;3.03;;;0.70;;
84849;SDS011;75096;49.576;11.024;2023-12-22T03:36:49;2.53;;;1.00;;
84849;SDS011;75096;49.576;11.024;2023-12-22T03:37:51;1.70;;;0.45;;
84849;SDS011;75096;49.576;11.024;2023-12-22T03:38:53;1.77;;;0.50;;
84849;SDS011;75096;49.576;11.024;2023-12-22T03:39:55;3.25;;;0.47;;
84849;SDS011;75096;49.576;11.024;2023-12-22T03:40:56;0.95;;;0.47;;
84849;SDS011;75096;49.576;11.024;2023-12-22T03:41:58;1.08;;;0.50;;
84849;SDS011;75096;49.576;11.024;2023-12-22T03:43:00;1.17;;;0.52;;
84849;SDS011;75096;49.576;11.024;2023-12-22T03:44:02;1.30;;;0.22;;
84849;SDS011;75096;49.576;11.024;2023-12-22T03:45:04;0.80;;;0.45;;
84849;SDS011;75096;49.576;11.024;2023-12-22T03:46:06;0.55;;;0.32;;
84849;SDS011;75096;49.576;11.024;2023-12-22T03:47:08;1.50;;;0.47;;
84849;SDS011;75096;49.576;11.024;2023-12-22T03:48:10;2.42;;;0.52;;
84849;SDS011;75096;49.576;11.024;2023-12-22T03:49:12;0.93;;;0.30;;
84849;SDS011;75096;49.576;11.024;2023-12-22T03:50:13;1.98;;;0.82;;
84849;SDS011;75096;49.576;11.024;2023-12-22T03:51:15;3.10;;;0.50;;
84849;SDS011;75096;49.576;11.024;2023-12-22T03:52:17;0.73;;;0.52;;
84849;SDS011;75096;49.576;11.024;2023-12-22T03:53:18;1.23;;;0.47;;
84849;SDS011;75096;49.576;11.024;2023-12-22T03:54:20;2.13;;;0.70;;
84849;SDS011;75096;49.576;11.024;2023-12-22T03:55:23;1.45;;;0.43;;
84849;SDS011;75096;49.576;11.024;2023-12-22T03:56:24;1.20;;;0.57;;
84849;SDS011;75096;49.576;11.024;2023-12-22T03:57:26;2.17;;;0.45;;
84849;SDS011;75096;49.576;11.024;2023-12-22T03:58:28;1.75;;;0.63;;
84849;SDS011;75096;49.576;11.024;2023-12-22T03:59:31;3.15;;;0.68;;
84849;SDS011;75096;49.576;11.024;2023-12-22T04:00:33;3.42;;;0.80;;
84849;SDS011;75096;49.576;11.024;2023-12-22T04:01:35;2.35;;;0.57;;
84849;SDS011;75096;49.576;11.024;2023-12-22T04:02:37;3.33;;;0.55;;
84849;SDS011;75096;49.576;11.024;2023-12-22T04:03:38;3.67;;;0.75;;
84849;SDS011;75096;49.576;11.024;2023-12-22T04:04:40;3.33;;;0.55;;
84849;SDS011;75096;49.576;11.024;2023-12-22T04:05:42;2.65;;;0.52;;
84849;SDS011;75096;49.576;11.024;2023-12-22T04:06:44;4.18;;;0.82;;
84849;SDS011;75096;49.576;11.024;2023-12-22T04:07:46;2.65;;;0.63;;
84849;SDS011;75096;49.576;11.024;2023-12-22T04:08:48;2.13;;;0.47;;
84849;SDS011;75096;49.576;11.024;2023-12-22T04:09:49;4.57;;;1.17;;
84849;SDS011;75096;49.576;11.024;2023-12-22T04:10:51;0.88;;;0.50;;
84849;SDS011;75096;49.576;11.024;2023-12-22T04:11:53;1.23;;;0.50;;
84849;SDS011;75096;49.576;11.024;2023-12-22T04:12:55;3.88;;;0.63;;
84849;SDS011;75096;49.576;11.024;2023-12-22T04:13:56;4.53;;;1.05;;
84849;SDS011;75096;49.576;11.024;2023-12-22T04:14:59;1.90;;;0.60;;
84849;SDS011;75096;49.576;11.024;2023-12-22T04:16:00;3.22;;;0.70;;
84849;SDS011;75096;49.576;11.024;2023-12-22T04:17:05;1.60;;;0.60;;
84849;SDS011;75096;49.576;11.024;2023-12-22T04:18:07;2.22;;;0.73;;
84849;SDS011;75096;49.576;11.024;2023-12-22T04:19:09;1.45;;;0.40;;
84849;SDS011;75096;49.576;11.024;2023-12-22T04:20:12;3.38;;;0.50;;
84849;SDS011;75096;49.576;11.024;2023-12-22T04:21:14;2.72;;;1.27;;
84849;SDS011;75096;49.576;11.024;2023-12-22T04:22:16;2.75;;;0.95;;
84849;SDS011;75096;49.576;11.024;2023-12-22T04:23:17;1.80;;;0.70;;
84849;SDS011;75096;49.576;11.024;2023-12-22T04:24:19;5.50;;;0.93;;
84849;SDS011;75096;49.576;11.024;2023-12-22T04:25:21;4.80;;;1.00;;
84849;SDS011;75096;49.576;11.024;2023-12-22T04:26:24;2.20;;;0.80;;
84849;SDS011;75096;49.576;11.024;2023-12-22T04:27:26;3.55;;;0.82;;
84849;SDS011;75096;49.576;11.024;2023-12-22T04:28:27;3.78;;;0.60;;
84849;SDS011;75096;49.576;11.024;2023-12-22T04:29:29;1.60;;;0.57;;
84849;SDS011;75096;49.576;11.024;2023-12-22T04:30:31;3.97;;;0.70;;
84849;SDS011;75096;49.576;11.024;2023-12-22T04:31:34;3.85;;;0.75;;
84849;SDS011;75096;49.576;11.024;2023-12-22T04:32:36;3.58;;;0.65;;
84849;SDS011;75096;49.576;11.024;2023-12-22T04:33:38;1.67;;;0.60;;
84849;SDS011;75096;49.576;11.024;2023-12-22T04:34:40;2.05;;;0.60;;
84849;SDS011;75096;49.576;11.024;2023-12-22T04:35:41;3.83;;;0.68;;
84849;SDS011;75096;49.576;11.024;2023-12-22T04:36:43;3.10;;;0.60;;
84849;SDS011;75096;49.576;11.024;2023-12-22T04:37:44;1.75;;;0.55;;
84849;SDS011;75096;49.576;11.024;2023-12-22T04:38:47;3.67;;;0.52;;
84849;SDS011;75096;49.576;11.024;2023-12-22T04:39:49;3.75;;;0.80;;
84849;SDS011;75096;49.576;11.024;2023-12-22T04:40:50;2.65;;;0.68;;
84849;SDS011;75096;49.576;11.024;2023-12-22T04:41:52;2.90;;;0.60;;
84849;SDS011;75096;49.576;11.024;2023-12-22T04:42:54;0.80;;;0.55;;
84849;SDS011;75096;49.576;11.024;2023-12-22T04:43:56;2.05;;;0.68;;
84849;SDS011;75096;49.576;11.024;2023-12-22T04:44:58;2.17;;;0.65;;
84849;SDS011;75096;49.576;11.024;2023-12-22T04:46:00;2.97;;;0.65;;
84849;SDS011;75096;49.576;11.024;2023-12-22T04:47:01;1.60;;;0.80;;
84849;SDS011;75096;49.576;11.024;2023-12-22T04:48:04;2.13;;;0.77;;
84849;SDS011;75096;49.576;11.024;2023-12-22T04:49:06;2.03;;;0.90;;
84849;SDS011;75096;49.576;11.024;2023-12-22T04:50:08;2.45;;;0.65;;
84849;SDS011;75096;49.576;11.024;2023-12-22T04:51:10;4.07;;;1.05;;
84849;SDS011;75096;49.576;11.024;2023-12-22T04:52:12;2.10;;;0.50;;
84849;SDS011;75096;49.576;11.024;2023-12-22T04:53:13;2.72;;;0.52;;
84849;SDS011;75096;49.576;11.024;2023-12-22T04:54:15;4.35;;;0.50;;
84849;SDS011;75096;49.576;11.024;2023-12-22T04:55:17;1.77;;;0.70;;
84849;SDS011;75096;49.576;11.024;2023-12-22T04:56:19;4.43;;;0.80;;
84849;SDS011;75096;49.576;11.024;2023-12-22T04:57:21;2.65;;;0.52;;
84849;SDS011;75096;49.576;11.024;2023-12-22T04:58:23;3.42;;;0.70;;
84849;SDS011;75096;49.576;11.024;2023-12-22T04:59:25;2.67;;;0.82;;
84849;SDS011;75096;49.576;11.024;2023-12-22T05:00:27;2.53;;;0.73;;
84849;SDS011;75096;49.576;11.024;2023-12-22T05:01:28;2.63;;;0.70;;
84849;SDS011;75096;49.576;11.024;2023-12-22T05:02:30;1.25;;;0.57;;
84849;SDS011;75096;49.576;11.024;2023-12-22T05:03:32;2.00;;;0.68;;
84849;SDS011;75096;49.576;11.024;2023-12-22T05:04:34;1.00;;;0.60;;
84849;SDS011;75096;49.576;11.024;2023-12-22T05:05:35;3.65;;;0.80;;
84849;SDS011;75096;49.576;11.024;2023-12-22T05:06:37;2.17;;;0.60;;
84849;SDS011;75096;49.576;11.024;2023-12-22T05:07:39;2.58;;;0.80;;
84849;SDS011;75096;49.576;11.024;2023-12-22T05:08:41;1.70;;;0.47;;
84849;SDS011;75096;49.576;11.024;2023-12-22T05:09:43;4.50;;;0.63;;
84849;SDS011;75096;49.576;11.024;2023-12-22T05:10:44;1.90;;;0.80;;
84849;SDS011;75096;49.576;11.024;2023-12-22T05:11:46;4.40;;;0.88;;
84849;SDS011;75096;49.576;11.024;2023-12-22T05:12:48;3.70;;;0.75;;
84849;SDS011;75096;49.576;11.024;2023-12-22T05:13:50;1.30;;;0.55;;
84849;SDS011;75096;49.576;11.024;2023-12-22T05:14:52;3.08;;;0.70;;
84849;SDS011;75096;49.576;11.024;2023-12-22T05:15:53;3.63;;;0.70;;
84849;SDS011;75096;49.576;11.024;2023-12-22T05:16:56;3.38;;;0.70;;
84849;SDS011;75096;49.576;11.024;2023-12-22T05:17:58;2.45;;;0.65;;
84849;SDS011;75096;49.576;11.024;2023-12-22T05:19:00;2.42;;;0.70;;
84849;SDS011;75096;49.576;11.024;2023-12-22T05:20:02;2.40;;;0.60;;
84849;SDS011;75096;49.576;11.024;2023-12-22T05:21:04;1.65;;;0.50;;
84849;SDS011;75096;49.576;11.024;2023-12-22T05:22:06;3.90;;;0.63;;
84849;SDS011;75096;49.576;11.024;2023-12-22T05:23:08;2.90;;;0.63;;
84849;SDS011;75096;49.576;11.024;2023-12-22T05:24:10;1.85;;;0.57;;
84849;SDS011;75096;49.576;11.024;2023-12-22T05:25:13;7.57;;;0.93;;
84849;SDS011;75096;49.576;11.024;2023-12-22T05:26:18;2.25;;;0.63;;
84849;SDS011;75096;49.576;11.024;2023-12-22T05:27:20;2.25;;;0.73;;
84849;SDS011;75096;49.576;11.024;2023-12-22T05:28:22;5.90;;;0.77;;
84849;SDS011;75096;49.576;11.024;2023-12-22T05:29:24;2.38;;;0.82;;
84849;SDS011;75096;49.576;11.024;2023-12-22T05:30:25;3.35;;;0.55;;
84849;SDS011;75096;49.576;11.024;2023-12-22T05:31:27;1.83;;;0.50;;
84849;SDS011;75096;49.576;11.024;2023-12-22T05:32:29;1.98;;;0.73;;
84849;SDS011;75096;49.576;11.024;2023-12-22T05:33:31;2.80;;;0.70;;
84849;SDS011;75096;49.576;11.024;2023-12-22T05:34:33;3.90;;;0.60;;
84849;SDS011;75096;49.576;11.024;2023-12-22T05:35:34;1.95;;;0.75;;
84849;SDS011;75096;49.576;11.024;2023-12-22T05:36:41;2.53;;;0.50;;
84849;SDS011;75096;49.576;11.024;2023-12-22T05:37:43;4.72;;;0.63;;
84849;SDS011;75096;49.576;11.024;2023-12-22T05:38:44;3.38;;;0.75;;
84849;SDS011;75096;49.576;11.024;2023-12-22T05:39:47;1.55;;;0.70;;
84849;SDS011;75096;49.576;11.024;2023-12-22T05:40:48;2.97;;;0.70;;
84849;SDS011;75096;49.576;11.024;2023-12-22T05:41:51;3.35;;;0.63;;
84849;SDS011;75096;49.576;11.024;2023-12-22T05:42:53;3.17;;;0.63;;
84849;SDS011;75096;49.576;11.024;2023-12-22T05:43:55;1.42;;;1.00;;
84849;SDS011;75096;49.576;11.024;2023-12-22T05:44:56;3.33;;;0.85;;
84849;SDS011;75096;49.576;11.024;2023-12-22T05:45:59;4.32;;;0.70;;
84849;SDS011;75096;49.576;11.024;2023-12-22T05:47:02;2.42;;;0.80;;
84849;SDS011;75096;49.576;11.024;2023-12-22T05:48:04;1.83;;;0.70;;
84849;SDS011;75096;49.576;11.024;2023-12-22T05:49:06;2.47;;;0.88;;
84849;SDS011;75096;49.576;11.024;2023-12-22T05:50:08;1.33;;;0.52;;
84849;SDS011;75096;49.576;11.024;2023-12-22T05:51:10;1.20;;;0.52;;
84849;SDS011;75096;49.576;11.024;2023-12-22T05:52:15;1.00;;;0.63;;
84849;SDS011;75096;49.576;11.024;2023-12-22T05:53:16;1.00;;;0.43;;
84849;SDS011;75096;49.576;11.024;2023-12-22T05:54:18;2.15;;;0.52;;
84849;SDS011;75096;49.576;11.024;2023-12-22T05:55:20;2.28;;;0.45;;
84849;SDS011;75096;49.576;11.024;2023-12-22T05:56:22;2.90;;;0.70;;
84849;SDS011;75096;49.576;11.024;2023-12-22T05:57:27;1.58;;;0.73;;
84849;SDS011;75096;49.576;11.024;2023-12-22T05:58:29;3.55;;;0.68;;
84849;SDS011;75096;49.576;11.024;2023-12-22T05:59:31;3.38;;;0.70;;
84849;SDS011;75096;49.576;11.024;2023-12-22T06:00:34;5.13;;;1.85;;
84849;SDS011;75096;49.576;11.024;2023-12-22T06:01:36;8.07;;;2.67;;
84849;SDS011;75096;49.576;11.024;2023-12-22T06:02:38;10.70;;;2.83;;
84849;SDS011;75096;49.576;11.024;2023-12-22T06:03:40;6.18;;;1.83;;
84849;SDS011;75096;49.576;11.024;2023-12-22T06:04:41;2.35;;;0.80;;
84849;SDS011;75096;49.576;11.024;2023-12-22T06:05:44;3.88;;;0.93;;
84849;SDS011;75096;49.576;11.024;2023-12-22T06:06:46;1.88;;;0.68;;
84849;SDS011;75096;49.576;11.024;2023-12-22T06:07:47;1.77;;;0.65;;
84849;SDS011;75096;49.576;11.024;2023-12-22T06:08:50;3.15;;;0.95;;